sensor_id;sensor_type;location;lat;lon;timestamp;pressure;altitude;pressure_sealevel;temperature;humidity
8229;BME280;4155;50.118;8.714;2022-08-20T00:01:16;99942.63;;;22.86;60.82
8229;BME280;4155;50.118;8.714;2022-08-20T00:03:44;99942.09;;;22.89;60.71
8229;BME280;4155;50.118;8.714;2022-08-20T00:06:20;99944.25;;;22.81;61.15
8229;BME280;4155;50.118;8.714;2022-08-20T00:08:49;99942.34;;;22.82;61.32
8229;BME280;4155;50.118;8.714;2022-08-20T00:11:23;99941.81;;;22.75;61.73
8229;BME280;4155;50.118;8.714;2022-08-20T00:13:57;99940.47;;;22.72;61.83
8229;BME280;4155;50.118;8.714;2022-08-20T00:16:27;99933.94;;;22.63;62.15
8229;BME280;4155;50.118;8.714;2022-08-20T00:18:58;99939.41;;;22.63;62.08
8229;BME280;4155;50.118;8.714;2022-08-20T00:21:27;99937.78;;;22.52;62.60
8229;BME280;4155;50.118;8.714;2022-08-20T00:23:57;99939.16;;;22.49;63.08
8229;BME280;4155;50.118;8.714;2022-08-20T00:26:26;99935.91;;;22.47;63.47
8229;BME280;4155;50.118;8.714;2022-08-20T00:28:54;99940.81;;;22.40;63.94
8229;BME280;4155;50.118;8.714;2022-08-20T00:31:22;99937.28;;;22.45;63.63
8229;BME280;4155;50.118;8.714;2022-08-20T00:33:50;99940.28;;;22.38;64.10
8229;BME280;4155;50.118;8.714;2022-08-20T00:36:19;99944.38;;;22.41;64.30
8229;BME280;4155;50.118;8.714;2022-08-20T00:38:57;99942.75;;;22.45;64.08
8229;BME280;4155;50.118;8.714;2022-08-20T00:41:28;99944.63;;;22.49;64.22
8229;BME280;4155;50.118;8.714;2022-08-20T00:44:06;99942.72;;;22.55;64.06
8229;BME280;4155;50.118;8.714;2022-08-20T00:46:35;99938.59;;;22.58;63.94
8229;BME280;4155;50.118;8.714;2022-08-20T00:49:06;99948.97;;;22.66;64.18
8229;BME280;4155;50.118;8.714;2022-08-20T00:51:38;99936.97;;;22.51;64.57
8229;BME280;4155;50.118;8.714;2022-08-20T00:54:14;99937.53;;;22.48;64.72
8229;BME280;4155;50.118;8.714;2022-08-20T00:56:46;99933.72;;;22.44;65.04
8229;BME280;4155;50.118;8.714;2022-08-20T00:59:18;99935.38;;;22.35;65.30
8229;BME280;4155;50.118;8.714;2022-08-20T01:01:48;99940.81;;;22.40;65.54
8229;BME280;4155;50.118;8.714;2022-08-20T01:04:22;99945.75;;;22.38;65.60
8229;BME280;4155;50.118;8.714;2022-08-20T01:06:50;99947.41;;;22.34;65.60
8229;BME280;4155;50.118;8.714;2022-08-20T01:09:18;99963.25;;;22.37;65.47
8229;BME280;4155;50.118;8.714;2022-08-20T01:12:08;99958.59;;;22.38;65.84
8229;BME280;4155;50.118;8.714;2022-08-20T01:14:36;99956.69;;;22.28;66.03
8229;BME280;4155;50.118;8.714;2022-08-20T01:17:09;99954.78;;;22.34;65.89
8229;BME280;4155;50.118;8.714;2022-08-20T01:19:44;99959.44;;;22.33;65.80
8229;BME280;4155;50.118;8.714;2022-08-20T01:22:24;99958.31;;;22.44;65.96
8229;BME280;4155;50.118;8.714;2022-08-20T01:25:15;99967.31;;;22.55;65.89
8229;BME280;4155;50.118;8.714;2022-08-20T01:27:51;99968.69;;;22.58;65.56
8229;BME280;4155;50.118;8.714;2022-08-20T01:30:25;99966.47;;;22.60;65.59
8229;BME280;4155;50.118;8.714;2022-08-20T01:32:54;99971.41;;;22.58;65.45
8229;BME280;4155;50.118;8.714;2022-08-20T01:35:23;99965.38;;;22.61;65.73
8229;BME280;4155;50.118;8.714;2022-08-20T01:37:51;99969.75;;;22.62;65.58
8229;BME280;4155;50.118;8.714;2022-08-20T01:40:28;99964.28;;;22.62;65.70
8229;BME280;4155;50.118;8.714;2022-08-20T01:43:00;99972.19;;;22.63;65.46
8229;BME280;4155;50.118;8.714;2022-08-20T01:45:35;99962.94;;;22.54;66.06
8229;BME280;4155;50.118;8.714;2022-08-20T01:48:06;99965.94;;;22.52;66.13
8229;BME280;4155;50.118;8.714;2022-08-20T01:50:37;99977.97;;;22.51;66.46
8229;BME280;4155;50.118;8.714;2022-08-20T01:53:12;99970.88;;;22.50;66.31
8229;BME280;4155;50.118;8.714;2022-08-20T01:55:41;99966.81;;;22.38;66.86
8229;BME280;4155;50.118;8.714;2022-08-20T01:58:10;99972.81;;;22.35;66.78
8229;BME280;4155;50.118;8.714;2022-08-20T02:00:38;99980.72;;;22.31;67.15
8229;BME280;4155;50.118;8.714;2022-08-20T02:03:05;99982.94;;;22.29;67.17
8229;BME280;4155;50.118;8.714;2022-08-20T02:05:33;99981.03;;;22.25;67.37
8229;BME280;4155;50.118;8.714;2022-08-20T02:08:02;99982.38;;;22.22;67.55
8229;BME280;4155;50.118;8.714;2022-08-20T02:10:31;99981.03;;;22.19;66.89
8229;BME280;4155;50.118;8.714;2022-08-20T02:12:59;99983.22;;;22.17;66.91
8229;BME280;4155;50.118;8.714;2022-08-20T02:15:28;99976.91;;;22.22;66.71
8229;BME280;4155;50.118;8.714;2022-08-20T02:18:04;99980.50;;;22.22;65.98
8229;BME280;4155;50.118;8.714;2022-08-20T02:20:34;99981.31;;;22.23;66.18
8229;BME280;4155;50.118;8.714;2022-08-20T02:23:03;99977.75;;;22.22;66.08
8229;BME280;4155;50.118;8.714;2022-08-20T02:25:33;99981.03;;;22.19;66.21
8229;BME280;4155;50.118;8.714;2022-08-20T02:28:10;99977.75;;;22.12;66.45
8229;BME280;4155;50.118;8.714;2022-08-20T02:30:43;99979.91;;;22.05;66.68
8229;BME280;4155;50.118;8.714;2022-08-20T02:33:13;99982.13;;;22.08;66.85
8229;BME280;4155;50.118;8.714;2022-08-20T02:38:12;99983.47;;;22.11;66.71
8229;BME280;4155;50.118;8.714;2022-08-20T02:40:41;99984.56;;;22.10;67.23
8229;BME280;4155;50.118;8.714;2022-08-20T02:43:10;99985.94;;;22.07;66.83
8229;BME280;4155;50.118;8.714;2022-08-20T02:45:38;99994.13;;;22.07;68.85
8229;BME280;4155;50.118;8.714;2022-08-20T02:48:12;99996.88;;;22.07;68.69
8229;BME280;4155;50.118;8.714;2022-08-20T02:50:48;100000.94;;;22.05;68.99
8229;BME280;4155;50.118;8.714;2022-08-20T02:53:17;100004.75;;;22.04;69.08
8229;BME280;4155;50.118;8.714;2022-08-20T02:55:44;100009.41;;;22.03;69.10
8229;BME280;4155;50.118;8.714;2022-08-20T02:58:13;100008.59;;;22.03;69.85
8229;BME280;4155;50.118;8.714;2022-08-20T03:00:41;100003.41;;;21.91;68.42
8229;BME280;4155;50.118;8.714;2022-08-20T03:03:11;100005.84;;;21.92;68.37
8229;BME280;4155;50.118;8.714;2022-08-20T03:05:42;100009.69;;;21.91;67.96
8229;BME280;4155;50.118;8.714;2022-08-20T03:08:12;100004.75;;;21.88;67.84
8229;BME280;4155;50.118;8.714;2022-08-20T03:10:41;99992.72;;;21.84;67.73
8229;BME280;4155;50.118;8.714;2022-08-20T03:13:09;99997.34;;;21.74;68.04
8229;BME280;4155;50.118;8.714;2022-08-20T03:15:39;99990.53;;;21.76;68.12
8229;BME280;4155;50.118;8.714;2022-08-20T03:18:08;99999.56;;;21.82;67.46
8229;BME280;4155;50.118;8.714;2022-08-20T03:20:37;100000.91;;;21.79;68.45
8229;BME280;4155;50.118;8.714;2022-08-20T03:23:05;99993.81;;;21.78;67.98
8229;BME280;4155;50.118;8.714;2022-08-20T03:25:33;99998.19;;;21.74;68.37
8229;BME280;4155;50.118;8.714;2022-08-20T03:28:01;99999.81;;;21.75;68.32
8229;BME280;4155;50.118;8.714;2022-08-20T03:30:29;99997.38;;;21.84;68.33
8229;BME280;4155;50.118;8.714;2022-08-20T03:32:58;99997.13;;;21.90;67.91
8229;BME280;4155;50.118;8.714;2022-08-20T03:35:29;99993.28;;;21.91;68.23
8229;BME280;4155;50.118;8.714;2022-08-20T03:37:58;99999.84;;;21.90;69.04
8229;BME280;4155;50.118;8.714;2022-08-20T03:40:29;99990.56;;;21.91;68.76
8229;BME280;4155;50.118;8.714;2022-08-20T03:42:58;99983.47;;;21.90;68.95
8229;BME280;4155;50.118;8.714;2022-08-20T03:45:26;99989.47;;;21.92;69.44
8229;BME280;4155;50.118;8.714;2022-08-20T03:47:55;99990.28;;;21.93;69.26
8229;BME280;4155;50.118;8.714;2022-08-20T03:50:26;99988.06;;;21.90;69.92
8229;BME280;4155;50.118;8.714;2022-08-20T03:52:55;99987.28;;;21.94;69.85
8229;BME280;4155;50.118;8.714;2022-08-20T03:55:25;99997.94;;;21.96;69.70
8229;BME280;4155;50.118;8.714;2022-08-20T03:57:57;99985.66;;;22.04;69.59
8229;BME280;4155;50.118;8.714;2022-08-20T04:00:27;99993.81;;;21.99;69.91
8229;BME280;4155;50.118;8.714;2022-08-20T04:02:56;99994.38;;;22.01;69.50
8229;BME280;4155;50.118;8.714;2022-08-20T04:05:23;99995.47;;;21.94;69.88
8229;BME280;4155;50.118;8.714;2022-08-20T04:07:54;100001.75;;;21.95;70.04
8229;BME280;4155;50.118;8.714;2022-08-20T04:10:30;99997.66;;;21.92;69.89
8229;BME280;4155;50.118;8.714;2022-08-20T04:12:58;99997.66;;;21.92;70.26
8229;BME280;4155;50.118;8.714;2022-08-20T04:15:27;99994.09;;;21.87;69.99
8229;BME280;4155;50.118;8.714;2022-08-20T04:17:54;99994.91;;;21.87;70.24
8229;BME280;4155;50.118;8.714;2022-08-20T04:20:24;99995.47;;;21.84;70.79
8229;BME280;4155;50.118;8.714;2022-08-20T04:22:53;99996.00;;;21.86;70.60
8229;BME280;4155;50.118;8.714;2022-08-20T04:25:25;100005.56;;;21.84;70.01
8229;BME280;4155;50.118;8.714;2022-08-20T04:27:56;99997.38;;;21.84;70.54
8229;BME280;4155;50.118;8.714;2022-08-20T04:30:25;99998.72;;;21.71;70.01
8229;BME280;4155;50.118;8.714;2022-08-20T04:32:53;99992.44;;;21.65;70.51
8229;BME280;4155;50.118;8.714;2022-08-20T04:35:22;100002.00;;;21.73;70.44
8229;BME280;4155;50.118;8.714;2022-08-20T04:37:57;99997.38;;;21.84;69.89
8229;BME280;4155;50.118;8.714;2022-08-20T04:40:25;99990.25;;;21.78;69.57
8229;BME280;4155;50.118;8.714;2022-08-20T04:43:12;99990.53;;;21.86;69.93
8229;BME280;4155;50.118;8.714;2022-08-20T04:45:40;100003.66;;;21.84;70.11
8229;BME280;4155;50.118;8.714;2022-08-20T04:48:08;100000.38;;;21.72;70.05
8229;BME280;4155;50.118;8.714;2022-08-20T04:50:43;100005.81;;;21.77;70.04
8229;BME280;4155;50.118;8.714;2022-08-20T04:53:15;100000.91;;;21.79;69.72
8229;BME280;4155;50.118;8.714;2022-08-20T04:55:52;100006.66;;;21.88;69.69
8229;BME280;4155;50.118;8.714;2022-08-20T04:58:22;100006.94;;;21.97;69.56
8229;BME280;4155;50.118;8.714;2022-08-20T05:00:55;100006.41;;;22.05;69.44
8229;BME280;4155;50.118;8.714;2022-08-20T05:03:26;100013.25;;;22.07;69.32
8229;BME280;4155;50.118;8.714;2022-08-20T05:05:55;100013.50;;;22.06;69.11
8229;BME280;4155;50.118;8.714;2022-08-20T05:08:24;100017.63;;;22.08;69.43
8229;BME280;4155;50.118;8.714;2022-08-20T05:10:53;100017.31;;;22.05;69.66
8229;BME280;4155;50.118;8.714;2022-08-20T05:13:42;100029.88;;;21.90;70.51
8229;BME280;4155;50.118;8.714;2022-08-20T05:16:10;100027.41;;;21.89;70.90
8229;BME280;4155;50.118;8.714;2022-08-20T05:18:37;100027.72;;;22.08;70.06
8229;BME280;4155;50.118;8.714;2022-08-20T05:21:05;100032.91;;;22.09;70.06
8229;BME280;4155;50.118;8.714;2022-08-20T05:23:34;100034.31;;;22.12;69.60
8229;BME280;4155;50.118;8.714;2022-08-20T05:26:03;100034.84;;;22.19;69.65
8229;BME280;4155;50.118;8.714;2022-08-20T05:28:35;100038.09;;;22.21;69.89
8229;BME280;4155;50.118;8.714;2022-08-20T05:31:25;100040.59;;;22.12;70.35
8229;BME280;4155;50.118;8.714;2022-08-20T05:33:58;100042.22;;;22.23;69.93
8229;BME280;4155;50.118;8.714;2022-08-20T05:36:25;100051.25;;;22.24;70.03
8229;BME280;4155;50.118;8.714;2022-08-20T05:38:53;100044.66;;;22.20;70.29
8229;BME280;4155;50.118;8.714;2022-08-20T05:41:21;100043.56;;;22.21;70.05
8229;BME280;4155;50.118;8.714;2022-08-20T05:43:55;100054.25;;;22.38;69.66
8229;BME280;4155;50.118;8.714;2022-08-20T05:46:24;100055.59;;;22.50;69.40
8229;BME280;4155;50.118;8.714;2022-08-20T05:48:52;100053.38;;;22.78;68.06
8229;BME280;4155;50.118;8.714;2022-08-20T05:51:24;100055.47;;;23.17;66.88
8229;BME280;4155;50.118;8.714;2022-08-20T05:53:52;100057.53;;;23.55;66.07
8229;BME280;4155;50.118;8.714;2022-08-20T05:56:23;100057.34;;;23.91;65.01
8229;BME280;4155;50.118;8.714;2022-08-20T05:58:52;100060.34;;;23.94;64.47
8229;BME280;4155;50.118;8.714;2022-08-20T06:01:20;100056.66;;;23.70;66.94
8229;BME280;4155;50.118;8.714;2022-08-20T06:03:49;100062.97;;;23.65;67.69
8229;BME280;4155;50.118;8.714;2022-08-20T06:06:34;100059.44;;;23.60;69.10
8229;BME280;4155;50.118;8.714;2022-08-20T06:09:14;100058.09;;;23.47;70.20
8229;BME280;4155;50.118;8.714;2022-08-20T06:11:56;100046.72;;;23.25;70.46
8229;BME280;4155;50.118;8.714;2022-08-20T06:14:25;100053.28;;;23.29;70.71
8229;BME280;4155;50.118;8.714;2022-08-20T06:16:52;100045.69;;;22.95;71.17
8229;BME280;4155;50.118;8.714;2022-08-20T06:19:26;100049.84;;;22.67;72.73
8229;BME280;4155;50.118;8.714;2022-08-20T06:21:58;100051.50;;;22.48;73.05
8229;BME280;4155;50.118;8.714;2022-08-20T06:24:26;100058.34;;;22.66;73.33
8229;BME280;4155;50.118;8.714;2022-08-20T06:26:54;100053.38;;;22.73;72.95
8229;BME280;4155;50.118;8.714;2022-08-20T06:29:23;100059.34;;;23.05;72.51
8229;BME280;4155;50.118;8.714;2022-08-20T06:31:51;100054.97;;;23.04;72.06
8229;BME280;4155;50.118;8.714;2022-08-20T06:34:18;100060.13;;;23.16;71.21
8229;BME280;4155;50.118;8.714;2022-08-20T06:36:47;100058.78;;;23.19;71.81
8229;BME280;4155;50.118;8.714;2022-08-20T06:39:17;100071.38;;;23.15;70.35
8229;BME280;4155;50.118;8.714;2022-08-20T06:41:45;100072.47;;;23.14;70.67
8229;BME280;4155;50.118;8.714;2022-08-20T06:44:13;100072.72;;;23.22;69.87
8229;BME280;4155;50.118;8.714;2022-08-20T06:46:41;100068.06;;;23.18;71.11
8229;BME280;4155;50.118;8.714;2022-08-20T06:49:11;100073.25;;;23.24;71.56
8229;BME280;4155;50.118;8.714;2022-08-20T06:51:39;100064.22;;;23.29;71.24
8229;BME280;4155;50.118;8.714;2022-08-20T06:54:08;100074.53;;;23.47;71.05
8229;BME280;4155;50.118;8.714;2022-08-20T06:56:37;100066.84;;;23.59;70.51
8229;BME280;4155;50.118;8.714;2022-08-20T06:59:04;100062.41;;;23.69;69.57
8229;BME280;4155;50.118;8.714;2022-08-20T07:01:32;100072.66;;;23.92;67.89
8229;BME280;4155;50.118;8.714;2022-08-20T07:04:01;100073.78;;;23.91;67.38
8229;BME280;4155;50.118;8.714;2022-08-20T07:06:29;100077.00;;;24.03;65.86
8229;BME280;4155;50.118;8.714;2022-08-20T07:08:56;100073.63;;;24.16;66.35
8229;BME280;4155;50.118;8.714;2022-08-20T07:11:26;100075.47;;;24.26;65.79
8229;BME280;4155;50.118;8.714;2022-08-20T07:13:55;100074.06;;;24.34;64.90
8229;BME280;4155;50.118;8.714;2022-08-20T07:16:25;100074.03;;;24.39;64.92
8229;BME280;4155;50.118;8.714;2022-08-20T07:18:53;100073.03;;;24.24;65.32
8229;BME280;4155;50.118;8.714;2022-08-20T07:21:21;100070.38;;;24.09;65.76
8229;BME280;4155;50.118;8.714;2022-08-20T07:23:49;100071.44;;;24.13;65.87
8229;BME280;4155;50.118;8.714;2022-08-20T07:26:17;100076.38;;;24.16;65.87
8229;BME280;4155;50.118;8.714;2022-08-20T07:28:46;100078.06;;;24.07;66.11
8229;BME280;4155;50.118;8.714;2022-08-20T07:31:14;100071.31;;;23.94;66.62
8229;BME280;4155;50.118;8.714;2022-08-20T07:34:01;100068.28;;;23.96;66.37
8229;BME280;4155;50.118;8.714;2022-08-20T07:36:29;100073.22;;;23.94;67.44
8229;BME280;4155;50.118;8.714;2022-08-20T07:38:57;100063.69;;;23.86;67.31
8229;BME280;4155;50.118;8.714;2022-08-20T07:41:31;100053.44;;;24.02;66.59
8229;BME280;4155;50.118;8.714;2022-08-20T07:44:00;100070.91;;;24.11;66.39
8229;BME280;4155;50.118;8.714;2022-08-20T07:46:28;100073.50;;;24.37;65.45
8229;BME280;4155;50.118;8.714;2022-08-20T07:48:57;100072.84;;;24.50;65.39
8229;BME280;4155;50.118;8.714;2022-08-20T07:51:25;100085.28;;;24.66;64.85
8229;BME280;4155;50.118;8.714;2022-08-20T07:53:54;100089.00;;;24.80;64.27
8229;BME280;4155;50.118;8.714;2022-08-20T07:56:23;100093.03;;;24.88;63.55
8229;BME280;4155;50.118;8.714;2022-08-20T07:58:54;100087.91;;;25.11;63.04
8229;BME280;4155;50.118;8.714;2022-08-20T08:01:29;100090.81;;;25.19;62.25
8229;BME280;4155;50.118;8.714;2022-08-20T08:03:57;100085.69;;;25.36;61.83
8229;BME280;4155;50.118;8.714;2022-08-20T08:06:26;100087.72;;;25.92;60.26
8229;BME280;4155;50.118;8.714;2022-08-20T08:08:59;100091.38;;;26.91;56.79
8229;BME280;4155;50.118;8.714;2022-08-20T08:11:28;100093.94;;;28.56;52.38
8229;BME280;4155;50.118;8.714;2022-08-20T08:13:57;100075.28;;;30.58;47.62
8229;BME280;4155;50.118;8.714;2022-08-20T08:16:28;100060.75;;;31.84;44.17
8229;BME280;4155;50.118;8.714;2022-08-20T08:18:57;100062.53;;;32.76;41.37
8229;BME280;4155;50.118;8.714;2022-08-20T08:21:27;100061.81;;;32.67;41.84
8229;BME280;4155;50.118;8.714;2022-08-20T08:23:56;100057.06;;;33.61;40.21
8229;BME280;4155;50.118;8.714;2022-08-20T08:26:24;100049.47;;;34.27;38.28
8229;BME280;4155;50.118;8.714;2022-08-20T08:28:54;100047.19;;;33.03;40.73
8229;BME280;4155;50.118;8.714;2022-08-20T08:31:22;100038.69;;;31.88;41.89
8229;BME280;4155;50.118;8.714;2022-08-20T08:33:52;100042.28;;;31.88;43.10
8229;BME280;4155;50.118;8.714;2022-08-20T08:36:20;100056.13;;;32.09;42.90
8229;BME280;4155;50.118;8.714;2022-08-20T08:38:48;100047.22;;;31.83;42.73
8229;BME280;4155;50.118;8.714;2022-08-20T08:41:27;100053.38;;;31.38;42.27
8229;BME280;4155;50.118;8.714;2022-08-20T08:44:04;100054.81;;;29.99;44.72
8229;BME280;4155;50.118;8.714;2022-08-20T08:46:37;100054.28;;;29.05;46.18
8229;BME280;4155;50.118;8.714;2022-08-20T08:49:09;100052.47;;;28.24;47.35
8229;BME280;4155;50.118;8.714;2022-08-20T08:51:42;100056.84;;;29.01;46.76
8229;BME280;4155;50.118;8.714;2022-08-20T08:54:13;100059.72;;;29.27;46.52
8229;BME280;4155;50.118;8.714;2022-08-20T08:56:42;100047.38;;;29.33;46.13
8229;BME280;4155;50.118;8.714;2022-08-20T08:59:17;100051.47;;;28.65;47.75
8229;BME280;4155;50.118;8.714;2022-08-20T09:01:47;100048.25;;;28.05;49.79
8229;BME280;4155;50.118;8.714;2022-08-20T09:04:26;100053.88;;;27.77;51.18
8229;BME280;4155;50.118;8.714;2022-08-20T09:06:55;100054.41;;;27.65;50.32
8229;BME280;4155;50.118;8.714;2022-08-20T09:09:26;100062.94;;;27.78;50.62
8229;BME280;4155;50.118;8.714;2022-08-20T09:12:04;100062.69;;;27.65;51.46
8229;BME280;4155;50.118;8.714;2022-08-20T09:14:32;100066.63;;;27.59;52.11
8229;BME280;4155;50.118;8.714;2022-08-20T09:17:01;100065.50;;;27.60;53.18
8229;BME280;4155;50.118;8.714;2022-08-20T09:19:31;100064.44;;;27.98;51.67
8229;BME280;4155;50.118;8.714;2022-08-20T09:22:06;100067.38;;;28.01;50.94
8229;BME280;4155;50.118;8.714;2022-08-20T09:24:33;100070.44;;;28.00;50.68
8229;BME280;4155;50.118;8.714;2022-08-20T09:27:01;100073.69;;;28.02;50.73
8229;BME280;4155;50.118;8.714;2022-08-20T09:29:29;100068.44;;;27.64;53.61
8229;BME280;4155;50.118;8.714;2022-08-20T09:32:05;100071.31;;;27.59;54.52
8229;BME280;4155;50.118;8.714;2022-08-20T09:34:37;100072.75;;;27.56;55.15
8229;BME280;4155;50.118;8.714;2022-08-20T09:37:05;100081.47;;;28.00;53.98
8229;BME280;4155;50.118;8.714;2022-08-20T09:39:33;100073.34;;;27.53;54.68
8229;BME280;4155;50.118;8.714;2022-08-20T09:42:08;100068.81;;;27.99;53.99
8229;BME280;4155;50.118;8.714;2022-08-20T09:44:36;100070.91;;;28.38;53.02
8229;BME280;4155;50.118;8.714;2022-08-20T09:47:05;100062.78;;;28.33;53.25
8229;BME280;4155;50.118;8.714;2022-08-20T09:49:34;100069.53;;;28.71;52.18
8229;BME280;4155;50.118;8.714;2022-08-20T09:52:06;100062.56;;;29.14;51.03
8229;BME280;4155;50.118;8.714;2022-08-20T09:54:35;100061.00;;;29.78;48.61
8229;BME280;4155;50.118;8.714;2022-08-20T09:57:05;100052.53;;;30.44;46.91
8229;BME280;4155;50.118;8.714;2022-08-20T09:59:35;100047.97;;;30.48;45.92
8229;BME280;4155;50.118;8.714;2022-08-20T10:02:03;100033.97;;;30.36;46.00
8229;BME280;4155;50.118;8.714;2022-08-20T10:04:31;100028.72;;;30.51;46.00
8229;BME280;4155;50.118;8.714;2022-08-20T10:06:59;100028.03;;;30.80;45.12
8229;BME280;4155;50.118;8.714;2022-08-20T10:09:28;100032.78;;;31.09;44.73
8229;BME280;4155;50.118;8.714;2022-08-20T10:11:56;100037.19;;;31.49;43.99
8229;BME280;4155;50.118;8.714;2022-08-20T10:14:24;100030.31;;;31.17;44.51
8229;BME280;4155;50.118;8.714;2022-08-20T10:16:54;100027.03;;;30.85;43.30
8229;BME280;4155;50.118;8.714;2022-08-20T10:19:26;100024.06;;;30.26;44.76
8229;BME280;4155;50.118;8.714;2022-08-20T10:21:54;100029.59;;;30.00;43.63
8229;BME280;4155;50.118;8.714;2022-08-20T10:24:22;100028.41;;;29.01;46.12
8229;BME280;4155;50.118;8.714;2022-08-20T10:26:53;100030.09;;;27.67;50.79
8229;BME280;4155;50.118;8.714;2022-08-20T10:29:22;100041.13;;;27.67;50.62
8229;BME280;4155;50.118;8.714;2022-08-20T10:31:51;100026.22;;;27.41;51.67
8229;BME280;4155;50.118;8.714;2022-08-20T10:34:18;100031.72;;;26.86;53.08
8229;BME280;4155;50.118;8.714;2022-08-20T10:36:46;100030.53;;;26.46;54.46
8229;BME280;4155;50.118;8.714;2022-08-20T10:39:14;100035.56;;;26.58;54.75
8229;BME280;4155;50.118;8.714;2022-08-20T10:41:43;100032.78;;;26.25;55.41
8229;BME280;4155;50.118;8.714;2022-08-20T10:44:12;100033.91;;;26.43;53.74
8229;BME280;4155;50.118;8.714;2022-08-20T10:46:39;100036.41;;;26.99;52.83
8229;BME280;4155;50.118;8.714;2022-08-20T10:49:07;100034.00;;;27.39;51.76
8229;BME280;4155;50.118;8.714;2022-08-20T10:51:35;100036.22;;;27.51;51.60
8229;BME280;4155;50.118;8.714;2022-08-20T10:54:02;100029.03;;;27.14;51.62
8229;BME280;4155;50.118;8.714;2022-08-20T10:56:38;100033.84;;;27.72;50.86
8229;BME280;4155;50.118;8.714;2022-08-20T10:59:05;100033.69;;;27.68;50.34
8229;BME280;4155;50.118;8.714;2022-08-20T11:01:35;100030.94;;;27.41;49.80
8229;BME280;4155;50.118;8.714;2022-08-20T11:04:02;100030.22;;;27.49;49.96
8229;BME280;4155;50.118;8.714;2022-08-20T11:06:31;100035.28;;;28.05;48.51
8229;BME280;4155;50.118;8.714;2022-08-20T11:08:58;100025.66;;;27.80;49.33
8229;BME280;4155;50.118;8.714;2022-08-20T11:11:26;100033.31;;;27.83;49.05
8229;BME280;4155;50.118;8.714;2022-08-20T11:13:54;100027.53;;;27.71;49.50
8229;BME280;4155;50.118;8.714;2022-08-20T11:16:24;100023.22;;;27.79;49.49
8229;BME280;4155;50.118;8.714;2022-08-20T11:18:54;100024.97;;;27.75;49.76
8229;BME280;4155;50.118;8.714;2022-08-20T11:21:22;100019.09;;;26.85;51.33
8229;BME280;4155;50.118;8.714;2022-08-20T11:23:50;100009.56;;;26.50;52.48
8229;BME280;4155;50.118;8.714;2022-08-20T11:26:21;100012.41;;;27.05;51.33
8229;BME280;4155;50.118;8.714;2022-08-20T11:28:50;100010.84;;;26.99;50.90
8229;BME280;4155;50.118;8.714;2022-08-20T11:31:17;100011.34;;;27.01;50.26
8229;BME280;4155;50.118;8.714;2022-08-20T11:33:45;100008.72;;;27.09;51.21
8229;BME280;4155;50.118;8.714;2022-08-20T11:36:14;100018.78;;;27.42;50.88
8229;BME280;4155;50.118;8.714;2022-08-20T11:38:42;100019.00;;;27.45;48.63
8229;BME280;4155;50.118;8.714;2022-08-20T11:41:09;100012.47;;;27.41;47.91
8229;BME280;4155;50.118;8.714;2022-08-20T11:43:37;100011.63;;;27.68;47.01
8229;BME280;4155;50.118;8.714;2022-08-20T11:46:04;100006.31;;;28.61;45.67
8229;BME280;4155;50.118;8.714;2022-08-20T11:48:32;100001.19;;;29.17;44.11
8229;BME280;4155;50.118;8.714;2022-08-20T11:51:00;99999.66;;;29.59;44.03
8229;BME280;4155;50.118;8.714;2022-08-20T11:53:29;100006.81;;;30.29;42.13
8229;BME280;4155;50.118;8.714;2022-08-20T11:55:58;99992.69;;;30.13;42.41
8229;BME280;4155;50.118;8.714;2022-08-20T11:58:26;99989.94;;;29.79;41.77
8229;BME280;4155;50.118;8.714;2022-08-20T12:00:54;99984.72;;;29.60;42.15
8229;BME280;4155;50.118;8.714;2022-08-20T12:03:21;99988.78;;;29.71;41.42
8229;BME280;4155;50.118;8.714;2022-08-20T12:05:49;99980.56;;;29.31;42.72
8229;BME280;4155;50.118;8.714;2022-08-20T12:08:17;99984.97;;;29.32;43.15
8229;BME280;4155;50.118;8.714;2022-08-20T12:10:55;99975.34;;;29.21;43.04
8229;BME280;4155;50.118;8.714;2022-08-20T12:13:23;99969.81;;;29.21;42.92
8229;BME280;4155;50.118;8.714;2022-08-20T12:16:11;99979.38;;;28.67;44.21
8229;BME280;4155;50.118;8.714;2022-08-20T12:18:39;99975.03;;;29.14;42.81
8229;BME280;4155;50.118;8.714;2022-08-20T12:21:06;99964.66;;;29.37;42.25
8229;BME280;4155;50.118;8.714;2022-08-20T12:23:34;99962.53;;;29.17;42.54
8229;BME280;4155;50.118;8.714;2022-08-20T12:26:03;99963.56;;;28.90;42.92
8229;BME280;4155;50.118;8.714;2022-08-20T12:28:31;99964.94;;;28.70;43.56
8229;BME280;4155;50.118;8.714;2022-08-20T12:30:59;99968.25;;;28.49;43.21
8229;BME280;4155;50.118;8.714;2022-08-20T12:33:27;99966.31;;;28.50;43.21
8229;BME280;4155;50.118;8.714;2022-08-20T12:35:55;99961.25;;;28.21;43.52
8229;BME280;4155;50.118;8.714;2022-08-20T12:38:23;99962.66;;;28.32;43.51
8229;BME280;4155;50.118;8.714;2022-08-20T12:40:51;99962.56;;;28.23;43.69
8229;BME280;4155;50.118;8.714;2022-08-20T12:43:20;99958.19;;;28.22;44.00
8229;BME280;4155;50.118;8.714;2022-08-20T12:45:50;99958.81;;;28.19;44.31
8229;BME280;4155;50.118;8.714;2022-08-20T12:48:18;99961.88;;;28.71;43.74
8229;BME280;4155;50.118;8.714;2022-08-20T12:50:48;99961.06;;;29.28;42.04
8229;BME280;4155;50.118;8.714;2022-08-20T12:53:18;99957.22;;;30.07;40.50
8229;BME280;4155;50.118;8.714;2022-08-20T12:55:45;99955.50;;;30.40;38.88
8229;BME280;4155;50.118;8.714;2022-08-20T12:58:13;99947.06;;;30.28;37.54
8229;BME280;4155;50.118;8.714;2022-08-20T13:00:43;99933.63;;;30.56;36.48
8229;BME280;4155;50.118;8.714;2022-08-20T13:03:17;99927.09;;;29.96;37.58
8229;BME280;4155;50.118;8.714;2022-08-20T13:05:45;99943.06;;;29.65;38.16
8229;BME280;4155;50.118;8.714;2022-08-20T13:08:13;99943.72;;;29.71;37.98
8229;BME280;4155;50.118;8.714;2022-08-20T13:10:43;99940.16;;;29.70;37.61
8229;BME280;4155;50.118;8.714;2022-08-20T13:13:11;99939.78;;;29.20;38.68
8229;BME280;4155;50.118;8.714;2022-08-20T13:15:39;99943.34;;;29.20;38.65
8229;BME280;4155;50.118;8.714;2022-08-20T13:18:08;99943.56;;;29.58;38.19
8229;BME280;4155;50.118;8.714;2022-08-20T13:20:35;99946.31;;;30.10;37.01
8229;BME280;4155;50.118;8.714;2022-08-20T13:23:04;99933.16;;;29.73;37.03
8229;BME280;4155;50.118;8.714;2022-08-20T13:25:32;99932.34;;;29.63;37.96
8229;BME280;4155;50.118;8.714;2022-08-20T13:28:02;99924.22;;;29.67;36.88
8229;BME280;4155;50.118;8.714;2022-08-20T13:30:31;99937.47;;;30.34;36.30
8229;BME280;4155;50.118;8.714;2022-08-20T13:32:59;99933.22;;;31.04;35.22